createdAt,value
2018-04-13T00:01:29.581Z,52.17
2018-04-13T00:03:57.110Z,52.15
2018-04-13T00:06:24.636Z,52.06
2018-04-13T00:08:52.208Z,52.06
2018-04-13T00:11:19.790Z,51.97
2018-04-13T00:13:47.371Z,52.17
2018-04-13T00:16:14.948Z,52.10
2018-04-13T00:18:42.537Z,52.17
2018-04-13T00:21:10.119Z,52.32
2018-04-13T00:23:37.666Z,52.26
2018-04-13T00:26:05.364Z,52.05
2018-04-13T00:28:32.896Z,52.01
2018-04-13T00:31:00.438Z,52.08
2018-04-13T00:33:28.032Z,51.78
2018-04-13T00:35:55.562Z,52.61
2018-04-13T00:38:24.033Z,52.73
2018-04-13T00:40:51.626Z,52.43
2018-04-13T00:43:19.200Z,52.44
2018-04-13T00:45:46.828Z,52.52
2018-04-13T00:48:14.363Z,52.48
2018-04-13T00:50:41.954Z,52.41
2018-04-13T00:53:21.324Z,52.12
2018-04-13T00:55:48.925Z,52.13
2018-04-13T00:58:17.482Z,52.14
2018-04-13T01:00:45.022Z,52.10
2018-04-13T01:03:12.854Z,52.05
2018-04-13T01:05:40.828Z,52.09
2018-04-13T01:08:08.406Z,52.00
2018-04-13T01:10:36.492Z,52.10
2018-04-13T01:13:05.010Z,52.01
2018-04-13T01:15:32.620Z,52.00
2018-04-13T01:18:00.416Z,51.95
2018-04-13T01:20:27.953Z,51.88
2018-04-13T01:22:55.489Z,51.82
2018-04-13T01:25:23.091Z,51.88
2018-04-13T01:27:51.050Z,51.61
2018-04-13T01:30:18.577Z,51.70
2018-04-13T01:32:46.104Z,51.68
2018-04-13T01:35:13.680Z,51.67
2018-04-13T01:37:41.252Z,51.73
2018-04-13T01:40:09.225Z,51.65
2018-04-13T01:42:37.120Z,51.66
2018-04-13T01:45:04.882Z,51.67
2018-04-13T01:47:32.436Z,51.61
2018-04-13T01:50:00.288Z,51.64
2018-04-13T01:52:27.895Z,51.64
2018-04-13T01:54:55.501Z,51.60
2018-04-13T01:57:23.046Z,51.65
2018-04-13T01:59:50.865Z,51.53
2018-04-13T02:02:18.426Z,51.50
2018-04-13T02:04:45.969Z,51.52
2018-04-13T02:07:13.641Z,51.51
2018-04-13T02:09:41.173Z,51.45
2018-04-13T02:12:08.768Z,51.53
2018-04-13T02:14:36.826Z,51.57
2018-04-13T02:17:04.590Z,51.59
2018-04-13T02:19:32.129Z,51.33
2018-04-13T02:21:59.709Z,52.29
2018-04-13T02:24:29.236Z,52.05
2018-04-13T02:26:57.052Z,52.78
2018-04-13T02:29:24.602Z,53.47
2018-04-13T02:31:52.185Z,53.57
2018-04-13T02:34:19.973Z,53.42
2018-04-13T02:36:47.445Z,53.12
2018-04-13T02:39:15.457Z,52.95
2018-04-13T02:41:42.996Z,53.07
2018-04-13T02:44:10.545Z,53.11
2018-04-13T02:46:38.138Z,53.11
2018-04-13T02:49:06.722Z,53.16
2018-04-13T02:51:35.412Z,53.29
2018-04-13T02:54:02.960Z,53.19
2018-04-13T02:56:30.556Z,53.24
2018-04-13T02:58:58.657Z,53.46
2018-04-13T03:01:26.188Z,53.62
2018-04-13T03:03:53.771Z,53.86
2018-04-13T03:06:21.314Z,54.64
2018-04-13T03:08:48.912Z,55.64
2018-04-13T03:11:16.453Z,55.53
2018-04-13T03:13:44.061Z,55.23
2018-04-13T03:16:11.637Z,55.32
2018-04-13T03:18:39.178Z,55.60
2018-04-13T03:21:06.763Z,56.74
2018-04-13T03:23:34.345Z,56.56
2018-04-13T03:26:01.878Z,56.42
2018-04-13T03:28:29.420Z,56.88
2018-04-13T03:30:56.965Z,57.13
2018-04-13T03:33:24.670Z,56.69
2018-04-13T03:35:52.270Z,55.89
2018-04-13T03:38:19.849Z,55.32
2018-04-13T03:40:47.388Z,55.52
2018-04-13T03:43:15.128Z,55.36
2018-04-13T03:45:42.935Z,55.21
2018-04-13T03:48:11.625Z,55.36
2018-04-13T03:50:39.390Z,55.19
2018-04-13T03:53:06.933Z,54.87
2018-04-13T03:55:34.825Z,55.03
2018-04-13T03:58:02.813Z,54.85
2018-04-13T04:00:30.413Z,54.36
2018-04-13T04:02:57.955Z,54.67
2018-04-13T04:05:25.537Z,54.36
2018-04-13T04:07:53.398Z,54.29
2018-04-13T04:10:21.642Z,56.14
2018-04-13T04:12:49.176Z,55.82
2018-04-13T04:15:16.750Z,55.66
2018-04-13T04:17:44.294Z,55.72
2018-04-13T04:20:24.853Z,56.59
2018-04-13T04:23:04.720Z,57.03
2018-04-13T04:25:51.508Z,57.06
2018-04-13T04:28:19.419Z,56.25
2018-04-13T04:30:47.917Z,56.23
2018-04-13T04:33:15.470Z,57.83
2018-04-13T04:35:43.633Z,57.50
2018-04-13T04:38:11.394Z,56.33
2018-04-13T04:40:38.932Z,56.12
2018-04-13T04:43:06.669Z,55.93
2018-04-13T04:45:34.259Z,55.45
2018-04-13T04:48:01.812Z,57.88
2018-04-13T04:50:29.396Z,59.78
2018-04-13T04:52:56.953Z,61.13
2018-04-13T04:55:24.546Z,62.20
2018-04-13T04:57:52.438Z,62.32
2018-04-13T05:00:20.505Z,59.90
2018-04-13T05:02:48.068Z,57.20
2018-04-13T05:05:15.673Z,55.42
2018-04-13T05:07:44.075Z,54.25
2018-04-13T05:10:12.648Z,53.21
2018-04-13T05:12:40.228Z,52.76
2018-04-13T05:15:07.962Z,52.39
2018-04-13T05:17:35.541Z,51.87
2018-04-13T05:20:03.081Z,50.59
2018-04-13T05:22:30.684Z,50.19
2018-04-13T05:24:58.302Z,49.51
2018-04-13T05:27:26.382Z,48.77
2018-04-13T05:29:54.451Z,47.57
2018-04-13T05:32:22.566Z,46.71
2018-04-13T05:34:51.222Z,45.97
2018-04-13T05:37:18.765Z,45.20
2018-04-13T05:39:46.831Z,44.59
2018-04-13T05:42:14.364Z,43.83
2018-04-13T05:44:42.260Z,42.97
2018-04-13T05:47:11.430Z,41.63
2018-04-13T05:49:39.022Z,41.56
2018-04-13T05:52:06.780Z,42.30
2018-04-13T05:54:34.336Z,42.64
2018-04-13T05:57:02.006Z,41.80
2018-04-13T05:59:29.743Z,41.23
2018-04-13T06:01:57.351Z,41.62
2018-04-13T06:04:24.889Z,42.39
2018-04-13T06:06:53.301Z,43.52
2018-04-13T06:09:22.565Z,45.62
2018-04-13T06:11:51.086Z,47.00
2018-04-13T06:14:18.633Z,46.01
2018-04-13T06:16:46.261Z,46.95
2018-04-13T06:19:13.810Z,47.27
2018-04-13T06:21:41.416Z,46.96
2018-04-13T06:24:08.954Z,45.12
2018-04-13T06:26:36.510Z,45.42
2018-04-13T06:29:04.104Z,44.39
2018-04-13T06:31:31.648Z,43.84
2018-04-13T06:33:59.403Z,43.23
2018-04-13T06:36:26.980Z,42.69
2018-04-13T06:38:54.565Z,44.85
2018-04-13T06:41:22.121Z,46.59
2018-04-13T06:43:50.546Z,45.50
2018-04-13T06:46:18.121Z,45.97
2018-04-13T06:48:45.783Z,45.22
2018-04-13T06:51:13.312Z,43.80
2018-04-13T06:53:40.930Z,43.86
2018-04-13T06:56:08.468Z,45.57
2018-04-13T06:58:36.071Z,46.02
2018-04-13T07:01:03.726Z,46.02
2018-04-13T07:03:31.260Z,47.31
2018-04-13T07:05:58.800Z,46.90
2018-04-13T07:08:26.381Z,47.45
2018-04-13T07:10:53.964Z,48.71
2018-04-13T07:13:21.560Z,48.93
2018-04-13T07:15:49.188Z,50.22
2018-04-13T07:18:16.729Z,50.00
2018-04-13T07:20:45.271Z,49.13
2018-04-13T07:23:12.950Z,48.28
2018-04-13T07:25:40.558Z,47.77
2018-04-13T07:28:08.169Z,47.34
2018-04-13T07:30:35.713Z,47.51
2018-04-13T07:33:03.331Z,47.21
2018-04-13T07:35:30.941Z,47.83
2018-04-13T07:37:58.924Z,47.62
2018-04-13T07:40:26.098Z,47.51
2018-04-13T07:42:54.619Z,47.82
2018-04-13T07:45:22.214Z,47.50
2018-04-13T07:47:49.799Z,47.90
2018-04-13T07:50:17.949Z,47.81
2018-04-13T07:52:46.369Z,47.74
2018-04-13T07:55:13.941Z,48.38
2018-04-13T07:57:41.480Z,47.89
2018-04-13T08:00:09.334Z,47.21
2018-04-13T08:02:36.889Z,47.60
2018-04-13T08:05:04.537Z,46.97
2018-04-13T08:07:32.173Z,46.70
2018-04-13T08:09:59.864Z,46.58
2018-04-13T08:12:27.325Z,46.74
2018-04-13T08:14:54.985Z,46.60
2018-04-13T08:17:22.530Z,46.66
2018-04-13T08:19:50.078Z,46.86
2018-04-13T08:22:17.677Z,46.35
2018-04-13T08:24:45.210Z,45.96
2018-04-13T08:27:12.766Z,46.08
2018-04-13T08:29:40.396Z,45.92
2018-04-13T08:32:08.325Z,45.54
2018-04-13T08:34:36.215Z,45.73
2018-04-13T08:37:03.822Z,45.59
2018-04-13T08:39:31.524Z,45.52
2018-04-13T08:41:59.060Z,45.16
2018-04-13T08:44:26.622Z,45.37
2018-04-13T08:46:54.383Z,45.43
2018-04-13T08:49:22.017Z,46.13
2018-04-13T08:51:49.640Z,46.54
2018-04-13T08:56:44.233Z,46.91
2018-04-13T08:59:11.876Z,47.20
2018-04-13T09:01:39.470Z,47.46
2018-04-13T09:04:09.381Z,47.88
2018-04-13T09:06:36.942Z,47.88
2018-04-13T09:09:04.656Z,47.92
2018-04-13T09:11:32.197Z,47.72
2018-04-13T09:13:59.738Z,47.89
2018-04-13T09:16:27.377Z,47.16
2018-04-13T09:18:54.920Z,46.74
2018-04-13T09:21:22.466Z,46.13
2018-04-13T09:23:50.138Z,45.82
2018-04-13T09:26:17.742Z,46.41
2018-04-13T09:28:45.303Z,46.64
2018-04-13T09:31:12.941Z,47.14
2018-04-13T09:33:41.517Z,46.57
2018-04-13T09:36:09.924Z,46.02
2018-04-13T09:38:37.753Z,45.60
2018-04-13T09:41:05.307Z,45.45
2018-04-13T09:43:32.865Z,45.37
2018-04-13T09:46:01.309Z,45.35
2018-04-13T09:48:30.335Z,45.36
2018-04-13T09:50:57.976Z,45.36
2018-04-13T09:53:25.523Z,45.32
2018-04-13T09:55:53.060Z,45.55
2018-04-13T09:58:20.710Z,45.65
2018-04-13T10:00:48.542Z,45.34
2018-04-13T10:03:20.973Z,45.25
2018-04-13T10:05:48.561Z,45.34
2018-04-13T10:08:16.116Z,45.46
2018-04-13T10:10:43.717Z,45.63
2018-04-13T10:13:11.328Z,45.68
2018-04-13T10:15:38.922Z,45.71
2018-04-13T10:18:06.574Z,45.68
2018-04-13T10:20:34.167Z,45.70
2018-04-13T10:23:01.723Z,45.86
2018-04-13T10:25:29.321Z,45.68
2018-04-13T10:27:56.877Z,45.70
2018-04-13T10:30:24.591Z,45.72
2018-04-13T10:32:52.224Z,46.27
2018-04-13T10:35:19.788Z,46.28
2018-04-13T10:37:47.449Z,46.30
2018-04-13T10:40:15.936Z,46.19
2018-04-13T10:42:43.623Z,46.16
2018-04-13T10:45:12.116Z,46.28
2018-04-13T10:47:39.671Z,46.31
2018-04-13T10:50:07.284Z,46.24
2018-04-13T10:52:34.833Z,46.31
2018-04-13T10:55:02.416Z,46.18
2018-04-13T10:57:30.008Z,45.99
2018-04-13T10:59:57.557Z,46.33
2018-04-13T11:02:25.169Z,46.37
2018-04-13T11:04:52.766Z,46.46
2018-04-13T11:07:20.318Z,46.37
2018-04-13T11:09:47.989Z,46.26
2018-04-13T11:12:15.542Z,46.45
2018-04-13T11:14:43.084Z,46.66
2018-04-13T11:17:10.766Z,46.82
2018-04-13T11:19:39.424Z,46.96
2018-04-13T11:22:07.777Z,47.08
2018-04-13T11:24:35.626Z,46.93
2018-04-13T11:27:03.178Z,46.86
2018-04-13T11:29:30.821Z,46.94
2018-04-13T11:31:58.434Z,46.90
2018-04-13T11:34:26.055Z,46.94
2018-04-13T11:36:53.610Z,46.96
2018-04-13T11:39:21.214Z,46.97
2018-04-13T11:41:48.786Z,47.15
2018-04-13T11:44:16.390Z,47.10
2018-04-13T11:46:43.932Z,47.11
2018-04-13T11:49:11.494Z,47.38
2018-04-13T11:51:39.053Z,47.40
2018-04-13T11:54:06.593Z,47.44
2018-04-13T11:56:35.104Z,47.30
2018-04-13T11:59:02.757Z,47.24
2018-04-13T12:01:30.336Z,47.37
2018-04-13T12:03:57.974Z,47.26
2018-04-13T12:06:25.920Z,47.02
2018-04-13T12:08:53.469Z,46.95
2018-04-13T12:11:21.092Z,46.70
2018-04-13T12:13:48.694Z,46.59
2018-04-13T12:16:16.283Z,46.78
2018-04-13T12:18:43.945Z,47.06
2018-04-13T12:21:12.411Z,47.09
2018-04-13T12:23:40.011Z,47.17
2018-04-13T12:26:07.597Z,47.07
2018-04-13T12:28:35.149Z,46.81
2018-04-13T12:31:02.740Z,46.88
2018-04-13T12:33:30.294Z,46.90
2018-04-13T12:35:58.047Z,46.73
2018-04-13T12:38:25.771Z,46.63
2018-04-13T12:40:53.330Z,46.58
2018-04-13T12:43:20.982Z,46.50
2018-04-13T12:45:49.362Z,46.42
2018-04-13T12:48:17.756Z,46.50
2018-04-13T12:50:46.639Z,46.50
2018-04-13T12:53:14.413Z,46.46
2018-04-13T12:55:42.281Z,46.46
2018-04-13T12:58:10.888Z,46.46
2018-04-13T13:00:39.665Z,46.15
2018-04-13T13:03:08.119Z,46.00
2018-04-13T13:05:35.672Z,45.67
2018-04-13T13:08:03.257Z,45.44
2018-04-13T13:10:30.944Z,45.56
2018-04-13T13:12:58.614Z,45.69
2018-04-13T13:15:27.140Z,45.72
2018-04-13T13:17:54.801Z,45.66
2018-04-13T13:20:22.931Z,45.64
2018-04-13T13:22:50.489Z,45.81
2018-04-13T13:25:18.089Z,45.99
2018-04-13T13:27:46.673Z,46.08
2018-04-13T13:30:18.058Z,46.24
2018-04-13T13:32:45.692Z,46.10
2018-04-13T13:35:13.435Z,46.29
2018-04-13T13:37:41.870Z,46.08
2018-04-13T13:40:09.859Z,46.06
2018-04-13T13:42:38.337Z,45.91
2018-04-13T13:45:06.430Z,45.88
2018-04-13T13:47:34.544Z,46.04
2018-04-13T13:50:04.915Z,45.92
2018-04-13T13:52:32.606Z,45.72
2018-04-13T13:55:01.205Z,45.76
2018-04-13T13:57:28.874Z,45.67
2018-04-13T13:59:56.567Z,45.84
2018-04-13T14:02:24.659Z,46.01
2018-04-13T14:04:52.323Z,46.25
2018-04-13T14:07:21.258Z,46.47
2018-04-13T14:09:49.824Z,46.69
2018-04-13T14:12:17.951Z,46.69
2018-04-13T14:14:45.732Z,46.64
2018-04-13T14:17:13.473Z,46.80
2018-04-13T14:19:41.411Z,46.81
2018-04-13T14:22:09.215Z,46.93
2018-04-13T14:24:37.020Z,47.03
2018-04-13T14:27:04.859Z,47.19
2018-04-13T14:29:33.851Z,47.23
2018-04-13T14:32:01.670Z,47.35
2018-04-13T14:34:29.400Z,47.43
2018-04-13T14:36:57.232Z,47.49
2018-04-13T14:39:24.869Z,47.49
2018-04-13T14:41:52.629Z,47.73
2018-04-13T14:44:20.504Z,47.76
2018-04-13T14:46:48.415Z,47.73
2018-04-13T14:49:16.385Z,47.65
2018-04-13T14:51:44.858Z,47.61
2018-04-13T14:54:13.292Z,47.58
2018-04-13T14:56:41.891Z,47.58
2018-04-13T14:59:10.378Z,47.54
2018-04-13T15:01:38.379Z,47.53
2018-04-13T15:04:06.264Z,47.49
2018-04-13T15:06:34.148Z,47.50
2018-04-13T15:09:02.848Z,47.51
2018-04-13T15:11:30.722Z,47.54
2018-04-13T15:13:58.534Z,47.57
2018-04-13T15:16:26.549Z,47.64
2018-04-13T15:18:55.323Z,47.61
2018-04-13T15:21:23.883Z,47.61
2018-04-13T15:23:53.437Z,47.74
2018-04-13T15:26:20.978Z,47.62
2018-04-13T15:28:48.957Z,47.54
2018-04-13T15:31:16.724Z,47.37
2018-04-13T15:33:44.992Z,47.33
2018-04-13T15:36:12.538Z,47.25
2018-04-13T15:38:41.461Z,47.37
2018-04-13T15:41:09.574Z,47.36
2018-04-13T15:43:37.162Z,47.33
2018-04-13T15:46:05.095Z,47.31
2018-04-13T15:48:32.882Z,47.39
2018-04-13T15:51:01.387Z,47.40
2018-04-13T15:53:29.033Z,47.59
2018-04-13T15:55:57.025Z,47.66
2018-04-13T15:58:24.630Z,47.70
2018-04-13T16:00:52.857Z,47.75
2018-04-13T16:03:21.193Z,47.83
2018-04-13T16:05:49.366Z,47.76
2018-04-13T16:08:17.386Z,47.91
2018-04-13T16:10:45.332Z,47.97
2018-04-13T16:13:13.622Z,48.10
2018-04-13T16:15:41.184Z,48.16
2018-04-13T16:18:09.253Z,48.26
2018-04-13T16:20:36.862Z,48.36
2018-04-13T16:23:04.884Z,48.42
2018-04-13T16:25:32.498Z,48.42
2018-04-13T16:28:00.042Z,48.33
2018-04-13T16:30:28.796Z,48.22
2018-04-13T16:32:56.554Z,48.24
2018-04-13T16:35:24.393Z,48.20
2018-04-13T16:37:52.399Z,48.19
2018-04-13T16:40:19.942Z,48.08
2018-04-13T16:42:48.382Z,47.93
2018-04-13T16:45:17.107Z,47.72
2018-04-13T16:47:45.046Z,47.82
2018-04-13T16:50:13.042Z,47.96
2018-04-13T16:52:40.633Z,47.58
2018-04-13T16:55:08.556Z,47.23
2018-04-13T16:57:36.355Z,47.48
2018-04-13T17:00:04.051Z,47.90
2018-04-13T17:02:31.672Z,48.25
2018-04-13T17:04:59.431Z,48.28
2018-04-13T17:07:26.982Z,48.27
2018-04-13T17:09:55.168Z,48.19
2018-04-13T17:12:23.748Z,48.18
2018-04-13T17:14:51.351Z,48.16
2018-04-13T17:17:18.956Z,48.31
2018-04-13T17:19:46.831Z,48.63
2018-04-13T17:22:15.558Z,49.06
2018-04-13T17:24:43.093Z,49.43
2018-04-13T17:27:11.063Z,49.68
2018-04-13T17:29:38.662Z,49.79
2018-04-13T17:32:06.218Z,49.79
2018-04-13T17:34:33.812Z,49.89
2018-04-13T17:37:03.837Z,49.92
2018-04-13T17:39:32.063Z,50.04
2018-04-13T17:42:00.106Z,50.09
2018-04-13T17:44:27.653Z,50.04
2018-04-13T17:46:55.197Z,49.94
2018-04-13T17:49:23.633Z,49.97
2018-04-13T17:51:51.346Z,49.93
2018-04-13T17:54:19.225Z,50.02
2018-04-13T17:56:47.690Z,49.98
2018-04-13T17:59:15.610Z,50.02
2018-04-13T18:01:43.159Z,50.35
2018-04-13T18:04:10.968Z,50.49
2018-04-13T18:06:39.459Z,50.31
2018-04-13T18:09:08.159Z,50.96
2018-04-13T18:11:35.698Z,51.27
2018-04-13T18:14:03.534Z,51.86
2018-04-13T18:16:31.495Z,52.48
2018-04-13T18:18:59.928Z,52.40
2018-04-13T18:21:29.557Z,52.16
2018-04-13T18:23:57.978Z,52.06
2018-04-13T18:26:25.565Z,52.05
2018-04-13T18:28:53.658Z,52.26
2018-04-13T18:31:21.254Z,52.50
2018-04-13T18:33:50.081Z,52.55
2018-04-13T18:36:17.985Z,52.77
2018-04-13T18:38:45.618Z,53.85
2018-04-13T18:41:14.453Z,54.33
2018-04-13T18:43:43.066Z,54.49
2018-04-13T18:46:11.231Z,54.20
2018-04-13T18:48:40.867Z,54.30
2018-04-13T18:51:11.947Z,55.40
2018-04-13T18:53:39.535Z,54.96
2018-04-13T18:56:07.093Z,54.69
2018-04-13T18:58:34.969Z,54.41
2018-04-13T19:01:03.619Z,54.08
2018-04-13T19:03:32.724Z,53.85
2018-04-13T19:06:00.369Z,53.79
2018-04-13T19:08:30.898Z,53.63
2018-04-13T19:10:58.446Z,55.23
2018-04-13T19:13:26.140Z,54.96
2018-04-13T19:15:56.546Z,55.54
2018-04-13T19:18:24.649Z,55.71
2018-04-13T19:20:53.125Z,55.31
2018-04-13T19:23:21.487Z,55.97
2018-04-13T19:25:49.344Z,55.52
2018-04-13T19:28:17.322Z,55.36
2018-04-13T19:30:44.867Z,55.32
2018-04-13T19:33:12.461Z,55.46
2018-04-13T19:35:40.885Z,55.23
2018-04-13T19:38:08.474Z,55.18
2018-04-13T19:40:36.136Z,55.75
2018-04-13T19:43:04.548Z,55.78
2018-04-13T19:45:33.022Z,55.51
2018-04-13T19:48:00.972Z,55.26
2018-04-13T19:50:29.122Z,55.24
2018-04-13T19:52:56.675Z,55.67
2018-04-13T19:55:24.287Z,56.57
2018-04-13T19:57:52.057Z,57.00
2018-04-13T20:00:19.962Z,56.42
2018-04-13T20:02:47.532Z,55.92
2018-04-13T20:05:15.369Z,56.65
2018-04-13T20:07:43.358Z,56.99
2018-04-13T20:10:10.914Z,56.72
2018-04-13T20:12:39.562Z,56.83
2018-04-13T20:15:07.102Z,56.55
2018-04-13T20:17:34.650Z,56.38
2018-04-13T20:20:02.375Z,56.17
2018-04-13T20:22:30.557Z,55.95
2018-04-13T20:24:58.694Z,55.92
2018-04-13T20:27:26.435Z,55.85
2018-04-13T20:29:54.045Z,55.68
2018-04-13T20:32:22.121Z,55.58
2018-04-13T20:34:50.649Z,55.59
2018-04-13T20:37:18.198Z,55.26
2018-04-13T20:39:45.918Z,55.60
2018-04-13T20:42:13.514Z,57.95
2018-04-13T20:44:41.062Z,59.63
2018-04-13T20:47:08.605Z,60.70
2018-04-13T20:49:36.330Z,60.98
2018-04-13T20:52:04.402Z,61.44
2018-04-13T20:54:32.021Z,60.58
2018-04-13T20:57:00.180Z,59.83
2018-04-13T20:59:28.170Z,59.71
2018-04-13T21:01:55.724Z,59.95
2018-04-13T21:04:23.534Z,59.82
2018-04-13T21:06:51.468Z,60.44
2018-04-13T21:09:20.008Z,60.69
2018-04-13T21:11:47.825Z,60.36
2018-04-13T21:14:15.373Z,60.48
2018-04-13T21:16:43.431Z,60.14
2018-04-13T21:19:10.984Z,60.65
2018-04-13T21:21:38.940Z,61.90
2018-04-13T21:24:06.531Z,62.37
2018-04-13T21:26:34.121Z,62.86
2018-04-13T21:29:01.718Z,62.21
2018-04-13T21:31:29.702Z,60.95
2018-04-13T21:33:57.314Z,60.35
2018-04-13T21:36:24.859Z,59.65
2018-04-13T21:38:53.000Z,59.14
2018-04-13T21:41:20.901Z,59.66
2018-04-13T21:43:48.975Z,61.64
2018-04-13T21:46:16.923Z,61.63
2018-04-13T21:48:44.514Z,61.17
2018-04-13T21:51:12.573Z,60.75
2018-04-13T21:53:40.367Z,60.50
2018-04-13T21:56:07.938Z,60.58
2018-04-13T21:58:35.562Z,60.12
2018-04-13T22:01:03.323Z,59.47
2018-04-13T22:03:31.060Z,59.00
2018-04-13T22:05:58.602Z,58.67
2018-04-13T22:08:26.614Z,58.30
2018-04-13T22:10:54.169Z,58.88
2018-04-13T22:13:35.497Z,59.06
2018-04-13T22:16:03.312Z,58.87
2018-04-13T22:18:30.905Z,58.65
2018-04-13T22:20:58.489Z,58.79
2018-04-13T22:23:26.038Z,58.78
2018-04-13T22:25:53.871Z,58.62
2018-04-13T22:28:21.425Z,58.51
2018-04-13T22:30:49.157Z,58.38
2018-04-13T22:33:16.746Z,58.10
2018-04-13T22:35:44.815Z,58.75
2018-04-13T22:38:12.706Z,59.30
2018-04-13T22:40:40.523Z,59.28
2018-04-13T22:43:08.066Z,60.41
2018-04-13T22:45:35.667Z,61.35
2018-04-13T22:48:03.458Z,61.43
2018-04-13T22:50:31.435Z,62.63
2018-04-13T22:53:00.198Z,61.92
2018-04-13T22:55:27.791Z,61.73
2018-04-13T22:57:55.401Z,61.32
2018-04-13T23:00:23.209Z,62.37
2018-04-13T23:02:50.754Z,62.08
2018-04-13T23:05:18.299Z,61.57
2018-04-13T23:07:45.897Z,60.44
2018-04-13T23:10:13.736Z,61.13
2018-04-13T23:12:41.317Z,62.89
2018-04-13T23:15:08.858Z,63.18
2018-04-13T23:17:36.638Z,62.95
2018-04-13T23:20:04.210Z,62.50
2018-04-13T23:22:38.001Z,63.41
2018-04-13T23:25:05.541Z,63.34
2018-04-13T23:27:33.507Z,62.62
2018-04-13T23:30:01.221Z,61.46
2018-04-13T23:32:28.766Z,60.62
2018-04-13T23:34:56.404Z,59.96
2018-04-13T23:37:24.509Z,59.50
2018-04-13T23:39:52.120Z,59.22
2018-04-13T23:42:20.532Z,59.00
2018-04-13T23:44:48.078Z,59.00
2018-04-13T23:47:15.949Z,59.20
2018-04-13T23:49:43.489Z,59.29
2018-04-13T23:52:11.035Z,60.23
2018-04-13T23:54:38.621Z,61.11
2018-04-13T23:57:06.218Z,61.60
2018-04-13T23:59:34.303Z,63.34
